Terminal Aerodrome Forecast
Issued by NWS Topeka, KS

Home | Current Version | Previous Version | Text Only | Print | Product List | Glossary On
Versions: 1 2 3 4 5 6 7 8 9 10 11 12 13 14 15 16 17 18 19 20 21 22 23 24 25 26 27 28
000
FTUS43 KTOP 161000 AAA
TAFTOP
TAF AMD
KTOP 161056Z 1611/1706 03002KT P6SM MIFG SKC
      TEMPO 1611/1614 1SM BR
     FM161400 12006KT P6SM FEW150
     FM170130 12004KT P6SM BKN035=

USA.gov is the U.S. government's official web portal to all federal, state and local government web resources and services.